createdAt,value
2018-09-12T00:01:12.824Z,23.30
2018-09-12T00:03:42.182Z,23.30
2018-09-12T00:06:11.451Z,23.30
2018-09-12T00:08:40.783Z,23.20
2018-09-12T00:11:10.206Z,23.30
2018-09-12T00:13:39.623Z,23.30
2018-09-12T00:16:08.967Z,23.30
2018-09-12T00:18:38.322Z,23.20
2018-09-12T00:21:08.417Z,23.20
2018-09-12T00:23:37.680Z,23.00
2018-09-12T00:26:07.246Z,22.90
2018-09-12T00:28:36.663Z,23.00
2018-09-12T00:31:06.187Z,22.80
2018-09-12T00:33:35.551Z,22.90
2018-09-12T00:36:04.842Z,22.80
2018-09-12T00:38:34.158Z,22.90
2018-09-12T00:41:03.473Z,23.00
2018-09-12T00:43:32.856Z,23.00
2018-09-12T00:46:02.143Z,22.80
2018-09-12T00:48:31.754Z,22.80
2018-09-12T00:51:01.037Z,22.60
2018-09-12T00:53:30.315Z,22.70
2018-09-12T00:55:59.633Z,22.70
2018-09-12T00:58:28.943Z,22.80
2018-09-12T01:00:58.265Z,22.60
2018-09-12T01:03:27.519Z,22.80
2018-09-12T01:05:56.771Z,22.80
2018-09-12T01:08:26.018Z,22.80
2018-09-12T01:10:55.297Z,22.70
2018-09-12T01:13:24.544Z,22.60
2018-09-12T01:15:53.856Z,22.40
2018-09-12T01:18:23.102Z,22.40
2018-09-12T01:20:52.428Z,22.40
2018-09-12T01:23:22.236Z,22.50
2018-09-12T01:25:51.467Z,22.40
2018-09-12T01:28:20.776Z,22.50
2018-09-12T01:30:50.062Z,22.60
2018-09-12T01:33:19.299Z,22.60
2018-09-12T01:35:48.639Z,22.70
2018-09-12T01:38:17.896Z,22.60
2018-09-12T01:40:47.235Z,22.60
2018-09-12T01:43:16.476Z,22.60
2018-09-12T01:45:45.738Z,22.50
2018-09-12T01:48:14.976Z,22.40
2018-09-12T01:50:44.184Z,22.40
2018-09-12T01:53:13.443Z,22.50
2018-09-12T01:55:42.694Z,22.50
2018-09-12T01:58:11.948Z,22.50
2018-09-12T02:00:42.312Z,22.50
2018-09-12T02:03:11.860Z,22.30
2018-09-12T02:05:41.126Z,22.30
2018-09-12T02:08:10.780Z,22.30
2018-09-12T02:10:40.151Z,22.20
2018-09-12T02:13:09.402Z,22.20
2018-09-12T02:15:38.769Z,22.30
2018-09-12T02:18:08.063Z,22.30
2018-09-12T02:20:37.314Z,22.40
2018-09-12T02:23:06.612Z,22.40
2018-09-12T02:25:35.900Z,22.00
2018-09-12T02:28:05.322Z,22.10
2018-09-12T02:30:34.869Z,22.20
2018-09-12T02:33:04.207Z,22.20
2018-09-12T02:35:33.516Z,22.00
2018-09-12T02:38:02.851Z,21.90
2018-09-12T02:40:32.196Z,21.80
2018-09-12T02:43:01.500Z,21.90
2018-09-12T02:45:30.899Z,22.10
2018-09-12T02:48:00.123Z,22.00
2018-09-12T02:50:29.451Z,22.10
2018-09-12T02:52:59.803Z,22.20
2018-09-12T02:55:29.047Z,22.10
2018-09-12T02:57:58.338Z,22.20
2018-09-12T03:00:27.627Z,22.00
2018-09-12T03:02:56.902Z,21.90
2018-09-12T03:05:26.218Z,22.00
2018-09-12T03:07:55.550Z,22.10
2018-09-12T03:10:24.842Z,21.90
2018-09-12T03:12:54.103Z,21.90
2018-09-12T03:15:24.551Z,22.00
2018-09-12T03:17:53.845Z,22.00
2018-09-12T03:20:23.552Z,22.00
2018-09-12T03:22:52.823Z,22.00
2018-09-12T03:25:22.120Z,21.90
2018-09-12T03:27:51.379Z,21.70
2018-09-12T03:30:20.759Z,21.80
2018-09-12T03:32:49.966Z,21.90
2018-09-12T03:35:19.200Z,21.80
2018-09-12T03:37:48.479Z,21.70
2018-09-12T03:40:17.745Z,21.90
2018-09-12T03:42:47.095Z,21.90
2018-09-12T03:45:16.374Z,21.70
2018-09-12T03:47:45.630Z,21.70
2018-09-12T03:50:14.914Z,21.40
2018-09-12T03:52:44.120Z,21.50
2018-09-12T03:55:13.414Z,21.50
2018-09-12T03:57:42.673Z,21.60
2018-09-12T04:00:11.955Z,21.60
2018-09-12T04:02:41.246Z,21.70
2018-09-12T04:05:10.492Z,21.80
2018-09-12T04:07:39.749Z,21.80
2018-09-12T04:10:09.032Z,21.70
2018-09-12T04:12:38.278Z,21.60
2018-09-12T04:15:07.723Z,21.60
2018-09-12T04:17:37.781Z,21.50
2018-09-12T04:20:07.119Z,21.40
2018-09-12T04:22:36.419Z,21.70
2018-09-12T04:25:05.741Z,21.80
2018-09-12T04:27:34.999Z,21.50
2018-09-12T04:30:04.335Z,21.50
2018-09-12T04:32:34.027Z,21.50
2018-09-12T04:35:03.344Z,21.50
2018-09-12T04:37:32.692Z,21.60
2018-09-12T04:40:02.028Z,21.60
2018-09-12T04:42:31.307Z,21.60
2018-09-12T04:45:00.554Z,21.50
2018-09-12T04:47:29.788Z,21.60
2018-09-12T04:49:59.354Z,21.60
2018-09-12T04:52:28.603Z,21.60
2018-09-12T04:54:57.905Z,21.40
2018-09-12T04:57:27.139Z,21.40
2018-09-12T04:59:56.401Z,21.50
2018-09-12T05:02:25.684Z,21.50
2018-09-12T05:04:54.956Z,21.50
2018-09-12T05:07:26.236Z,21.60
2018-09-12T05:09:55.499Z,21.70
2018-09-12T05:12:24.779Z,21.40
2018-09-12T05:14:54.031Z,21.40
2018-09-12T05:17:23.287Z,21.50
2018-09-12T05:19:53.627Z,21.50
2018-09-12T05:22:22.911Z,21.60
2018-09-12T05:24:52.178Z,21.60
2018-09-12T05:27:21.499Z,21.50
2018-09-12T05:29:50.795Z,21.60
2018-09-12T05:32:20.112Z,21.40
2018-09-12T05:34:49.433Z,21.40
2018-09-12T05:37:18.941Z,21.50
2018-09-12T05:39:48.178Z,21.50
2018-09-12T05:42:17.530Z,21.40
2018-09-12T05:44:46.836Z,21.30
2018-09-12T05:47:16.162Z,21.30
2018-09-12T05:49:45.451Z,21.30
2018-09-12T05:52:14.772Z,21.50
2018-09-12T05:54:44.095Z,21.30
2018-09-12T05:57:13.379Z,21.40
2018-09-12T05:59:42.707Z,21.60
2018-09-12T06:02:12.258Z,21.50
2018-09-12T06:04:41.579Z,21.40
2018-09-12T06:07:11.225Z,21.70
2018-09-12T06:09:40.372Z,21.60
2018-09-12T06:12:09.710Z,21.30
2018-09-12T06:14:39.038Z,21.50
2018-09-12T06:17:08.397Z,21.70
2018-09-12T06:19:37.729Z,21.70
2018-09-12T06:22:07.071Z,21.60
2018-09-12T06:24:36.404Z,21.30
2018-09-12T06:27:06.722Z,21.60
2018-09-12T06:29:36.044Z,21.60
2018-09-12T06:32:05.431Z,21.50
2018-09-12T06:34:34.683Z,21.60
2018-09-12T06:37:04.405Z,21.70
2018-09-12T06:39:33.670Z,21.60
2018-09-12T06:42:03.002Z,21.70
2018-09-12T06:44:32.651Z,21.50
2018-09-12T06:47:01.887Z,21.70
2018-09-12T06:49:31.295Z,21.50
2018-09-12T06:52:00.570Z,21.70
2018-09-12T06:54:29.936Z,21.70
2018-09-12T06:56:59.195Z,21.70
2018-09-12T06:59:28.538Z,21.90
2018-09-12T07:01:57.801Z,21.70
2018-09-12T07:04:27.355Z,21.60
2018-09-12T07:06:56.579Z,21.40
2018-09-12T07:09:25.842Z,21.20
2018-09-12T07:11:55.107Z,21.70
2018-09-12T07:14:24.588Z,21.80
2018-09-12T07:16:53.910Z,21.90
2018-09-12T07:19:23.643Z,22.00
2018-09-12T07:21:53.159Z,22.00
2018-09-12T07:24:22.459Z,21.70
2018-09-12T07:26:51.750Z,22.00
2018-09-12T07:29:20.957Z,22.30
2018-09-12T07:31:50.277Z,22.00
2018-09-12T07:34:19.474Z,22.10
2018-09-12T07:36:48.746Z,21.70
2018-09-12T07:39:19.107Z,22.10
2018-09-12T07:41:50.277Z,22.10
2018-09-12T07:44:19.699Z,22.40
2018-09-12T07:46:48.953Z,22.30
2018-09-12T07:49:18.249Z,22.30
2018-09-12T07:51:47.405Z,22.30
2018-09-12T07:54:16.856Z,22.40
2018-09-12T07:56:46.444Z,22.10
2018-09-12T07:59:16.386Z,22.30
2018-09-12T08:01:45.857Z,21.90
2018-09-12T08:04:15.185Z,22.00
2018-09-12T08:06:44.485Z,22.10
2018-09-12T08:09:14.471Z,22.10
2018-09-12T08:11:44.113Z,22.00
2018-09-12T08:14:13.382Z,22.40
2018-09-12T08:16:42.804Z,22.50
2018-09-12T08:19:12.149Z,22.20
2018-09-12T08:21:41.526Z,22.10
2018-09-12T08:24:10.814Z,22.10
2018-09-12T08:26:40.070Z,22.00
2018-09-12T08:29:09.322Z,22.30
2018-09-12T08:31:38.587Z,22.50
2018-09-12T08:34:07.859Z,22.30
2018-09-12T08:36:37.244Z,22.50
2018-09-12T08:39:09.032Z,22.70
2018-09-12T08:41:38.478Z,22.40
2018-09-12T08:44:08.392Z,22.40
2018-09-12T08:46:37.716Z,22.50
2018-09-12T08:49:07.050Z,22.70
2018-09-12T08:51:36.366Z,22.80
2018-09-12T08:54:05.839Z,22.40
2018-09-12T08:56:35.158Z,22.30
2018-09-12T08:59:04.579Z,22.50
2018-09-12T09:01:33.957Z,22.50
2018-09-12T09:04:03.229Z,22.70
2018-09-12T09:06:32.431Z,22.80
2018-09-12T09:09:01.790Z,22.90
2018-09-12T09:11:31.027Z,22.70
2018-09-12T09:14:00.564Z,22.90
2018-09-12T09:16:29.852Z,22.90
2018-09-12T09:18:59.293Z,22.80
2018-09-12T09:21:28.725Z,22.40
2018-09-12T09:23:58.245Z,22.20
2018-09-12T09:26:27.638Z,21.90
2018-09-12T09:28:57.395Z,21.50
2018-09-12T09:31:26.698Z,21.50
2018-09-12T09:33:56.247Z,20.90
2018-09-12T09:36:25.619Z,21.10
2018-09-12T09:38:54.907Z,20.50
2018-09-12T09:41:24.094Z,20.40
2018-09-12T09:43:53.541Z,20.10
2018-09-12T09:46:22.858Z,20.00
2018-09-12T09:48:52.215Z,20.10
2018-09-12T09:51:21.432Z,20.00
2018-09-12T09:53:50.812Z,19.70
2018-09-12T09:56:20.049Z,19.20
2018-09-12T09:58:49.307Z,19.40
2018-09-12T10:03:31.019Z,19.20
2018-09-12T10:06:05.439Z,19.40
2018-09-12T10:08:40.066Z,19.40
2018-09-12T10:11:09.455Z,19.10
2018-09-12T10:13:38.670Z,19.00
2018-09-12T10:16:08.226Z,18.70
2018-09-12T10:18:38.148Z,18.90
2018-09-12T10:21:07.644Z,18.80
2018-09-12T10:23:37.298Z,18.80
2018-09-12T10:26:06.879Z,18.70
2018-09-12T10:28:36.162Z,18.60
2018-09-12T10:31:05.491Z,18.60
2018-09-12T10:33:34.823Z,18.70
2018-09-12T10:36:04.035Z,18.30
2018-09-12T10:38:33.335Z,18.40
2018-09-12T10:41:02.740Z,18.50
2018-09-12T10:43:31.971Z,18.10
2018-09-12T10:46:01.301Z,18.10
2018-09-12T10:48:31.583Z,18.00
2018-09-12T10:51:01.081Z,18.00
2018-09-12T10:53:30.358Z,18.40
2018-09-12T10:55:59.796Z,18.40
2018-09-12T10:58:29.040Z,18.70
2018-09-12T11:00:58.655Z,18.90
2018-09-12T11:03:27.914Z,18.60
2018-09-12T11:05:57.182Z,18.80
2018-09-12T11:08:26.651Z,18.90
2018-09-12T11:10:57.731Z,18.70
2018-09-12T11:13:26.984Z,18.50
2018-09-12T11:15:56.547Z,18.80
2018-09-12T11:18:25.822Z,18.80
2018-09-12T11:20:56.269Z,18.60
2018-09-12T11:23:26.273Z,18.50
2018-09-12T11:25:55.668Z,18.40
2018-09-12T11:28:25.006Z,18.60
2018-09-12T11:30:55.228Z,18.80
2018-09-12T11:33:24.443Z,18.80
2018-09-12T11:35:55.884Z,18.10
2018-09-12T11:38:25.163Z,17.90
2018-09-12T11:40:54.401Z,18.40
2018-09-12T11:43:25.114Z,18.10
2018-09-12T11:45:54.411Z,18.50
2018-09-12T11:48:23.642Z,18.60
2018-09-12T11:50:53.331Z,18.70
2018-09-12T11:53:22.554Z,19.00
2018-09-12T11:55:51.921Z,19.10
2018-09-12T11:58:21.341Z,19.00
2018-09-12T12:00:52.006Z,19.00
2018-09-12T12:03:23.049Z,19.10
2018-09-12T12:05:52.330Z,19.00
2018-09-12T12:08:21.579Z,18.30
2018-09-12T12:10:51.825Z,18.70
2018-09-12T12:13:21.497Z,18.70
2018-09-12T12:15:50.712Z,18.80
2018-09-12T12:18:20.011Z,19.00
2018-09-12T12:20:49.263Z,18.90
2018-09-12T12:23:18.485Z,18.80
2018-09-12T12:25:47.771Z,19.00
2018-09-12T12:28:17.015Z,19.00
2018-09-12T12:30:46.272Z,18.80
2018-09-12T12:33:15.640Z,18.60
2018-09-12T12:35:45.404Z,18.40
2018-09-12T12:38:14.947Z,18.40
2018-09-12T12:40:44.301Z,18.30
2018-09-12T12:43:13.539Z,18.40
2018-09-12T12:45:43.025Z,18.60
2018-09-12T12:48:13.227Z,18.70
2018-09-12T12:50:42.441Z,18.80
2018-09-12T12:53:11.784Z,18.70
2018-09-12T12:55:41.077Z,18.90
2018-09-12T12:58:14.796Z,19.10
2018-09-12T13:00:44.091Z,19.20
2018-09-12T13:03:13.339Z,19.10
2018-09-12T13:05:42.798Z,19.00
2018-09-12T13:08:14.628Z,19.30
2018-09-12T13:10:43.874Z,19.30
2018-09-12T13:13:13.398Z,19.20
2018-09-12T13:15:45.939Z,19.00
2018-09-12T13:18:15.307Z,19.00
2018-09-12T13:20:44.507Z,19.10
2018-09-12T13:23:13.797Z,19.20
2018-09-12T13:25:43.075Z,18.80
2018-09-12T13:28:12.521Z,18.70
2018-09-12T13:30:44.483Z,18.60
2018-09-12T13:33:13.789Z,18.70
2018-09-12T13:35:43.416Z,18.60
2018-09-12T13:38:12.639Z,18.40
2018-09-12T13:40:47.066Z,18.50
2018-09-12T13:43:16.403Z,18.60
2018-09-12T13:45:45.823Z,18.70
2018-09-12T13:48:18.043Z,18.80
2018-09-12T13:50:47.356Z,18.80
2018-09-12T13:53:16.631Z,18.40
2018-09-12T13:55:45.851Z,18.50
2018-09-12T13:58:15.983Z,18.30
2018-09-12T14:00:47.739Z,18.10
2018-09-12T14:03:17.291Z,18.30
2018-09-12T14:05:46.510Z,18.30
2018-09-12T14:08:15.846Z,18.40
2018-09-12T14:10:45.076Z,18.80
2018-09-12T14:13:14.325Z,18.60
2018-09-12T14:15:43.601Z,18.50
2018-09-12T14:18:12.843Z,18.70
2018-09-12T14:20:42.129Z,18.90
2018-09-12T14:23:11.356Z,19.00
2018-09-12T14:25:40.582Z,19.10
2018-09-12T14:28:10.070Z,18.90
2018-09-12T14:30:39.426Z,18.90
2018-09-12T14:33:13.888Z,19.00
2018-09-12T14:35:43.129Z,19.10
2018-09-12T14:38:12.711Z,19.00
2018-09-12T14:40:41.966Z,19.00
2018-09-12T14:43:13.152Z,19.00
2018-09-12T14:45:43.908Z,19.00
2018-09-12T14:48:13.434Z,19.00
2018-09-12T14:50:42.821Z,18.90
2018-09-12T14:53:12.171Z,18.80
2018-09-12T14:55:44.064Z,18.50
2018-09-12T14:58:13.359Z,18.70
2018-09-12T15:00:45.563Z,18.90
2018-09-12T15:03:15.015Z,19.00
2018-09-12T15:05:44.272Z,18.80
2018-09-12T15:08:13.546Z,18.80
2018-09-12T15:10:42.791Z,18.70
2018-09-12T15:13:12.096Z,18.70
2018-09-12T15:15:41.493Z,18.90
2018-09-12T15:18:10.825Z,18.80
2018-09-12T15:20:40.111Z,18.90
2018-09-12T15:23:09.353Z,18.90
2018-09-12T15:25:38.654Z,18.70
2018-09-12T15:28:07.899Z,18.70
2018-09-12T15:30:38.695Z,19.00
2018-09-12T15:33:08.287Z,19.10
2018-09-12T15:35:37.532Z,18.70
2018-09-12T15:38:06.792Z,18.70
2018-09-12T15:40:36.348Z,18.50
2018-09-12T15:43:05.875Z,18.90
2018-09-12T15:45:35.823Z,18.90
2018-09-12T15:48:05.198Z,18.90
2018-09-12T15:50:34.418Z,18.70
2018-09-12T15:53:04.029Z,18.80
2018-09-12T15:55:33.350Z,18.80
2018-09-12T15:58:02.724Z,19.00
2018-09-12T16:00:32.023Z,19.00
2018-09-12T16:03:01.296Z,19.10
2018-09-12T16:05:30.588Z,19.20
2018-09-12T16:07:59.840Z,19.30
2018-09-12T16:10:29.067Z,19.20
2018-09-12T16:13:01.556Z,19.30
2018-09-12T16:15:30.873Z,19.10
2018-09-12T16:18:01.343Z,19.20
2018-09-12T16:20:30.799Z,19.20
2018-09-12T16:23:00.088Z,19.00
2018-09-12T16:25:29.549Z,19.10
2018-09-12T16:27:59.146Z,19.10
2018-09-12T16:30:28.375Z,19.10
2018-09-12T16:32:57.794Z,19.00
2018-09-12T16:35:26.975Z,19.00
2018-09-12T16:37:56.275Z,19.00
2018-09-12T16:40:25.502Z,18.80
2018-09-12T16:42:54.746Z,18.90
2018-09-12T16:45:24.056Z,18.60
2018-09-12T16:47:53.272Z,18.50
2018-09-12T16:50:22.515Z,18.40
2018-09-12T16:52:51.802Z,18.20
2018-09-12T16:55:21.203Z,18.30
2018-09-12T16:57:50.506Z,18.20
2018-09-12T17:00:20.654Z,18.00
2018-09-12T17:02:50.042Z,18.00
2018-09-12T17:05:19.418Z,18.30
2018-09-12T17:07:48.687Z,18.00
2018-09-12T17:10:17.931Z,18.00
2018-09-12T17:12:47.179Z,18.00
2018-09-12T17:15:16.446Z,18.10
2018-09-12T17:17:46.770Z,18.20
2018-09-12T17:20:16.088Z,18.30
2018-09-12T17:22:45.243Z,18.50
2018-09-12T17:25:14.492Z,18.30
2018-09-12T17:27:43.863Z,18.30
2018-09-12T17:30:13.235Z,17.90
2018-09-12T17:32:42.497Z,17.90
2018-09-12T17:35:11.798Z,18.20
2018-09-12T17:37:40.968Z,17.90
2018-09-12T17:40:10.254Z,18.10
2018-09-12T17:42:39.455Z,18.20
2018-09-12T17:45:09.074Z,18.00
2018-09-12T17:47:38.315Z,18.00
2018-09-12T17:50:07.583Z,17.80
2018-09-12T17:52:36.842Z,17.80
2018-09-12T17:55:06.211Z,17.90
2018-09-12T17:57:35.468Z,18.00
2018-09-12T18:00:04.995Z,18.20
2018-09-12T18:02:34.283Z,18.10
2018-09-12T18:05:04.239Z,18.10
2018-09-12T18:07:33.456Z,18.00
2018-09-12T18:10:02.774Z,18.10
2018-09-12T18:12:32.022Z,18.00
2018-09-12T18:15:01.285Z,18.00
2018-09-12T18:17:30.615Z,18.10
2018-09-12T18:19:59.786Z,18.10
2018-09-12T18:22:29.109Z,18.00
2018-09-12T18:24:58.370Z,18.10
2018-09-12T18:27:27.642Z,18.00
2018-09-12T18:29:57.060Z,18.00
2018-09-12T18:32:26.434Z,17.90
2018-09-12T18:34:55.704Z,17.90
2018-09-12T18:37:25.143Z,18.00
2018-09-12T18:39:54.333Z,17.70
2018-09-12T18:42:24.192Z,17.60
2018-09-12T18:44:53.588Z,17.50
2018-09-12T18:47:22.868Z,17.60
2018-09-12T18:49:53.611Z,17.70
2018-09-12T18:52:24.500Z,17.60
2018-09-12T18:54:54.031Z,17.30
2018-09-12T18:57:24.986Z,17.30
2018-09-12T18:59:54.579Z,17.20
2018-09-12T19:02:23.888Z,17.10
2018-09-12T19:04:54.835Z,17.20
2018-09-12T19:07:24.318Z,17.50
2018-09-12T19:09:53.692Z,17.60
2018-09-12T19:12:22.923Z,17.60
2018-09-12T19:14:53.594Z,17.60
2018-09-12T19:17:24.499Z,17.60
2018-09-12T19:19:54.125Z,17.60
2018-09-12T19:22:24.525Z,17.80
2018-09-12T19:24:53.839Z,17.30
2018-09-12T19:27:23.154Z,17.30
2018-09-12T19:29:52.469Z,17.60
2018-09-12T19:32:23.527Z,17.50
2018-09-12T19:34:55.493Z,17.50
2018-09-12T19:37:25.820Z,17.60
2018-09-12T19:39:55.266Z,17.60
2018-09-12T19:42:25.227Z,17.40
2018-09-12T19:44:54.610Z,17.40
2018-09-12T19:47:24.199Z,17.30
2018-09-12T19:49:53.550Z,17.40
2018-09-12T19:52:22.859Z,17.50
2018-09-12T19:54:52.181Z,17.40
2018-09-12T19:57:21.406Z,17.30
2018-09-12T19:59:50.679Z,17.40
2018-09-12T20:02:32.051Z,17.50
2018-09-12T20:05:01.736Z,17.60
2018-09-12T20:07:32.200Z,17.60
2018-09-12T20:10:01.476Z,17.70
2018-09-12T20:12:30.774Z,17.70
2018-09-12T20:15:02.636Z,17.80
2018-09-12T20:17:31.899Z,17.70
2018-09-12T20:20:01.477Z,17.60
2018-09-12T20:22:30.782Z,17.60
2018-09-12T20:25:00.143Z,17.60
2018-09-12T20:27:29.550Z,17.50
2018-09-12T20:29:58.943Z,17.60
2018-09-12T20:32:28.308Z,17.60
2018-09-12T20:34:57.571Z,17.70
2018-09-12T20:37:27.948Z,17.70
2018-09-12T20:39:57.383Z,17.70
2018-09-12T20:42:26.679Z,17.80
2018-09-12T20:44:56.045Z,17.90
2018-09-12T20:47:25.334Z,17.90
2018-09-12T20:49:54.655Z,17.90
2018-09-12T20:52:26.089Z,17.80
2018-09-12T20:54:55.411Z,17.70
2018-09-12T20:57:24.799Z,17.80
2018-09-12T20:59:54.199Z,17.80
2018-09-12T21:02:23.451Z,17.90
2018-09-12T21:04:52.641Z,17.90
2018-09-12T21:07:21.898Z,17.90
2018-09-12T21:09:51.590Z,17.90
2018-09-12T21:12:20.872Z,17.90
2018-09-12T21:14:50.159Z,17.80
2018-09-12T21:17:19.452Z,17.80
2018-09-12T21:19:48.864Z,17.70
2018-09-12T21:22:18.142Z,17.70
2018-09-12T21:24:47.422Z,17.70
2018-09-12T21:27:16.645Z,17.70
2018-09-12T21:29:46.008Z,17.80
2018-09-12T21:32:15.263Z,17.70
2018-09-12T21:34:59.075Z,17.70
2018-09-12T21:37:28.389Z,17.70
2018-09-12T21:39:57.672Z,17.70
2018-09-12T21:42:27.217Z,17.70
2018-09-12T21:44:56.515Z,17.80
2018-09-12T21:47:25.824Z,17.80
2018-09-12T21:49:55.131Z,17.80
2018-09-12T21:52:24.472Z,17.70
2018-09-12T21:54:53.696Z,17.70
2018-09-12T21:57:22.916Z,17.70
2018-09-12T21:59:52.144Z,17.70
2018-09-12T22:02:21.431Z,17.70
2018-09-12T22:04:50.811Z,17.50
2018-09-12T22:07:20.060Z,17.60
2018-09-12T22:09:49.347Z,17.70
2018-09-12T22:12:18.603Z,17.70
2018-09-12T22:14:47.827Z,17.80
2018-09-12T22:17:17.179Z,17.80
2018-09-12T22:19:46.454Z,17.80
2018-09-12T22:22:15.803Z,17.80
2018-09-12T22:24:45.472Z,17.80
2018-09-12T22:27:14.746Z,17.80
2018-09-12T22:29:44.024Z,17.70
2018-09-12T22:32:13.275Z,17.60
2018-09-12T22:34:42.594Z,17.60
2018-09-12T22:37:11.975Z,17.60
2018-09-12T22:39:41.218Z,17.60
2018-09-12T22:42:11.705Z,17.50
2018-09-12T22:44:40.961Z,17.60
2018-09-12T22:47:10.291Z,17.50
2018-09-12T22:49:39.595Z,17.50
2018-09-12T22:52:08.906Z,17.50
2018-09-12T22:54:38.107Z,17.50
2018-09-12T22:57:07.374Z,17.40
2018-09-12T22:59:36.722Z,17.40
2018-09-12T23:02:06.201Z,17.40
2018-09-12T23:04:35.480Z,17.30
2018-09-12T23:07:04.868Z,17.20
2018-09-12T23:09:34.166Z,17.30
2018-09-12T23:12:03.431Z,17.40
2018-09-12T23:14:32.735Z,17.30
2018-09-12T23:17:02.063Z,17.40
2018-09-12T23:19:31.454Z,17.30
2018-09-12T23:22:00.881Z,17.40
2018-09-12T23:24:30.227Z,17.40
2018-09-12T23:26:59.614Z,17.30
2018-09-12T23:29:46.120Z,17.30
2018-09-12T23:32:15.399Z,17.20
2018-09-12T23:34:44.639Z,17.10
2018-09-12T23:37:13.879Z,17.10
2018-09-12T23:39:43.157Z,17.30
2018-09-12T23:42:12.467Z,17.40
2018-09-12T23:44:41.727Z,17.40
2018-09-12T23:47:10.978Z,17.40
2018-09-12T23:49:40.179Z,17.40
2018-09-12T23:52:09.588Z,17.40
2018-09-12T23:54:38.830Z,17.40
2018-09-12T23:57:08.234Z,17.30
2018-09-12T23:59:38.011Z,17.30
